Time;durP1;ratioP1;P1;durP2;ratioP2;P2;SDS_P1;SDS_P2;PMS_P1;PMS_P2;Temp;Humidity;BMP_temperature;BMP_pressure;BME280_temperature;BME280_humidity;BME280_pressure;Samples;Min_cycle;Max_cycle;Signal;HPM_P1;HPM_P2
2023/02/03 00:00:36;;;;;;;;;;;;;;;15.16;73.44;101022.78;7398210;19;1737;-43
2023/02/03 00:03:04;;;;;;;;;;;;;;;15.16;73.26;101012.13;7398936;19;1852;-44
2023/02/03 00:05:32;;;;;;;;;;;;;;;15.17;73.27;101032.50;7400581;19;2175;-44
2023/02/03 00:08:01;;;;;;;;;;;;;;;15.15;73.17;101023.75;7401060;19;1050;-44
2023/02/03 00:10:32;;;;;;;;;;;;;;;15.15;73.63;101037.09;7400493;19;2051;-44
2023/02/03 00:13:00;;;;;;;;;;;;;;;15.15;73.64;101024.59;7400339;19;2123;-44
2023/02/03 00:15:29;;;;;;;;;;;;;;;15.15;73.36;101031.75;7399120;19;1872;-44
2023/02/03 00:17:57;;;;;;;;;;;;;;;15.15;73.37;101026.44;7400116;19;1928;-44
2023/02/03 00:20:25;;;;;;;;;;;;;;;15.13;73.62;101042.50;7399569;19;1918;-44
2023/02/03 00:22:54;;;;;;;;;;;;;;;15.11;73.12;101010.63;7398963;19;1839;-44
2023/02/03 00:25:22;;;;;;;;;;;;;;;15.09;73.40;101017.03;7400570;19;2074;-44
2023/02/03 00:27:53;;;;;;;;;;;;;;;15.11;73.50;101025.78;7406393;19;1867;-44
2023/02/03 00:30:22;;;;;;;;;;;;;;;15.06;73.47;101012.78;7407593;19;2169;-44
2023/02/03 00:32:50;;;;;;;;;;;;;;;15.14;73.32;101057.53;7407845;19;1893;-44
2023/02/03 00:35:18;;;;;;;;;;;;;;;15.85;71.31;101047.38;7407228;19;1931;-44
2023/02/03 00:37:52;;;;;;;;;;;;;;;16.07;70.25;101041.38;7408514;19;1039;-44
2023/02/03 00:40:21;;;;;;;;;;;;;;;16.77;68.37;101061.22;7406482;19;1887;-44
2023/02/03 00:42:49;;;;;;;;;;;;;;;17.13;67.46;101051.44;7404897;19;1850;-43
2023/02/03 00:45:20;;;;;;;;;;;;;;;17.34;66.90;101039.13;7406874;19;2182;-44
2023/02/03 00:47:48;;;;;;;;;;;;;;;17.62;65.92;101043.19;7406001;19;1538;-44
2023/02/03 00:50:17;;;;;;;;;;;;;;;17.63;65.94;101022.66;7405800;19;1930;-44
2023/02/03 00:52:45;;;;;;;;;;;;;;;17.12;67.38;101039.06;7406188;19;953;-44
2023/02/03 00:55:13;;;;;;;;;;;;;;;16.59;68.84;101034.94;7405886;19;2114;-44
2023/02/03 00:57:42;;;;;;;;;;;;;;;16.16;70.25;101035.38;7406141;19;1809;-44
2023/02/03 01:00:11;;;;;;;;;;;;;;;15.86;71.44;101041.94;7405871;19;1939;-44
2023/02/03 01:02:41;;;;;;;;;;;;;;;15.72;71.51;101071.38;7404524;19;1857;-44
2023/02/03 01:05:10;;;;;;;;;;;;;;;15.64;72.16;101068.38;7405933;19;1951;-44
2023/02/03 01:07:38;;;;;;;;;;;;;;;15.57;71.82;101064.41;7406230;19;969;-44
2023/02/03 01:10:07;;;;;;;;;;;;;;;15.49;72.35;101076.44;7405017;19;2344;-44
2023/02/03 01:12:35;;;;;;;;;;;;;;;15.47;72.37;101058.88;7406429;19;1923;-44
2023/02/03 01:15:03;;;;;;;;;;;;;;;15.41;72.45;101033.47;7405211;19;1988;-44
2023/02/03 01:17:32;;;;;;;;;;;;;;;15.37;72.49;101045.31;7404297;19;1774;-44
2023/02/03 01:20:03;;;;;;;;;;;;;;;15.38;72.43;101054.16;7404754;19;1746;-44
2023/02/03 01:22:32;;;;;;;;;;;;;;;15.31;72.36;101045.72;7404090;19;1846;-44
2023/02/03 01:25:00;;;;;;;;;;;;;;;15.31;72.22;101053.72;7404258;19;1907;-44
2023/02/03 01:27:28;;;;;;;;;;;;;;;15.28;72.76;101064.59;7405364;19;1895;-44
2023/02/03 01:29:56;;;;;;;;;;;;;;;15.26;72.54;101061.16;7404823;19;1885;-44
2023/02/03 01:32:25;;;;;;;;;;;;;;;15.26;72.55;101047.84;7405034;19;1877;-43
2023/02/03 01:34:53;;;;;;;;;;;;;;;15.22;72.88;101065.00;7405413;19;1951;-43
2023/02/03 01:37:24;;;;;;;;;;;;;;;15.21;72.28;101064.16;7404804;19;1031;-44
2023/02/03 01:39:52;;;;;;;;;;;;;;;15.20;72.89;101069.56;7404280;19;1888;-43
2023/02/03 01:42:20;;;;;;;;;;;;;;;15.18;72.71;101060.84;7403881;19;1911;-44
2023/02/03 01:44:50;;;;;;;;;;;;;;;15.14;72.71;101064.66;7403526;19;2158;-44
2023/02/03 01:47:27;;;;;;;;;;;;;;;15.11;72.98;101058.59;7402654;19;1759;-44
2023/02/03 01:49:59;;;;;;;;;;;;;;;15.10;72.56;101062.22;7403759;19;1906;-44
2023/02/03 01:52:30;;;;;;;;;;;;;;;15.09;72.68;101064.97;7405772;19;925;-44
2023/02/03 01:54:59;;;;;;;;;;;;;;;15.09;72.82;101081.81;7403408;19;1957;-44
2023/02/03 01:57:31;;;;;;;;;;;;;;;15.07;73.01;101070.41;7402168;19;2129;-44
2023/02/03 02:00:00;;;;;;;;;;;;;;;15.06;73.08;101071.38;7404402;19;1896;-44
2023/02/03 02:02:28;;;;;;;;;;;;;;;15.06;73.23;101087.34;7402640;19;1859;-44
2023/02/03 02:05:00;;;;;;;;;;;;;;;15.02;72.88;101071.66;7403436;19;1928;-44
2023/02/03 02:07:32;;;;;;;;;;;;;;;15.04;72.91;101078.63;7403949;19;956;-44
2023/02/03 02:10:01;;;;;;;;;;;;;;;15.05;72.52;101068.81;7403022;19;2163;-43
2023/02/03 02:12:29;;;;;;;;;;;;;;;15.05;72.52;101068.81;7403723;19;1964;-44
2023/02/03 02:14:58;;;;;;;;;;;;;;;15.05;72.79;101064.31;7403325;19;1929;-44
2023/02/03 02:17:38;;;;;;;;;;;;;;;15.03;72.41;101076.88;7402418;19;1960;-44
2023/02/03 02:20:21;;;;;;;;;;;;;;;15.02;72.44;101090.31;7402614;19;1823;-44
2023/02/03 02:23:02;;;;;;;;;;;;;;;15.21;73.47;101089.94;7402819;19;1857;-43
2023/02/03 02:25:43;;;;;;;;;;;;;;;15.40;74.29;101085.09;7403834;19;2059;-44
2023/02/03 02:28:26;;;;;;;;;;;;;;;15.44;73.77;101080.41;7403345;19;1960;-44
2023/02/03 02:31:00;;;;;;;;;;;;;;;15.38;73.89;101076.34;7401359;19;1931;-44
2023/02/03 02:33:36;;;;;;;;;;;;;;;15.44;74.19;101105.25;7402781;19;1634;-44
2023/02/03 02:36:08;;;;;;;;;;;;;;;15.47;73.95;101099.69;7401835;19;1693;-44
2023/02/03 02:38:42;;;;;;;;;;;;;;;15.51;73.91;101100.34;7401443;19;1732;-44
2023/02/03 02:41:16;;;;;;;;;;;;;;;15.49;73.52;101089.78;7402798;19;1812;-44
2023/02/03 02:43:48;;;;;;;;;;;;;;;15.47;73.70;101094.34;7401505;19;1919;-44
2023/02/03 02:46:19;;;;;;;;;;;;;;;15.52;73.55;101102.06;7403098;19;1136;-44
2023/02/03 02:48:54;;;;;;;;;;;;;;;15.59;73.26;101094.47;7401083;19;2385;-44
2023/02/03 02:51:23;;;;;;;;;;;;;;;16.10;71.64;101099.84;7403246;19;2054;-44
2023/02/03 02:53:55;;;;;;;;;;;;;;;16.98;68.81;101113.09;7398650;19;2086;-43
2023/02/03 02:56:25;;;;;;;;;;;;;;;17.75;66.38;101090.41;7401428;19;1762;-44
2023/02/03 02:58:55;;;;;;;;;;;;;;;18.45;64.66;101089.31;7401828;19;1878;-44
2023/02/03 03:01:23;;;;;;;;;;;;;;;18.86;63.64;101090.47;7401819;19;1922;-43
2023/02/03 03:03:55;;;;;;;;;;;;;;;18.88;63.26;101067.09;7401544;19;1864;-44
2023/02/03 03:06:27;;;;;;;;;;;;;;;18.86;63.22;101082.41;7403049;19;1105;-44
2023/02/03 03:08:57;;;;;;;;;;;;;;;18.81;63.60;101084.66;7398931;19;1895;-43
2023/02/03 03:11:26;;;;;;;;;;;;;;;18.69;63.97;101075.75;7401967;19;1503;-44
2023/02/03 03:13:56;;;;;;;;;;;;;;;18.69;64.09;101073.91;7401405;19;1945;-44
2023/02/03 03:16:26;;;;;;;;;;;;;;;18.64;63.82;101084.19;7402165;19;1887;-44
2023/02/03 03:18:59;;;;;;;;;;;;;;;18.67;64.41;101086.59;7402579;19;1873;-43
2023/02/03 03:21:30;;;;;;;;;;;;;;;18.75;63.45;101082.44;7402407;19;1039;-43
2023/02/03 03:24:01;;;;;;;;;;;;;;;18.75;63.78;101075.25;7398801;19;1891;-43
2023/02/03 03:26:32;;;;;;;;;;;;;;;18.79;63.72;101099.97;7401570;19;2188;-44
2023/02/03 03:29:05;;;;;;;;;;;;;;;18.79;63.87;101103.53;7401905;19;1218;-44
2023/02/03 03:31:33;;;;;;;;;;;;;;;18.83;63.36;101096.09;7400574;19;2072;-43
2023/02/03 03:34:04;;;;;;;;;;;;;;;18.87;63.40;101116.28;7401463;19;1890;-43
2023/02/03 03:36:34;;;;;;;;;;;;;;;18.88;63.67;101107.28;7401070;19;1797;-43
2023/02/03 03:39:05;;;;;;;;;;;;;;;18.90;63.26;101109.81;7399955;19;1708;-43
2023/02/03 03:41:38;;;;;;;;;;;;;;;18.94;63.23;101125.53;7401277;19;1913;-43
2023/02/03 03:44:08;;;;;;;;;;;;;;;18.95;62.89;101119.19;7399709;19;1900;-43
2023/02/03 03:46:39;;;;;;;;;;;;;;;18.99;62.96;101120.63;7400802;19;1965;-43
2023/02/03 03:49:11;;;;;;;;;;;;;;;19.02;63.04;101128.44;7401263;19;1772;-43
2023/02/03 03:51:43;;;;;;;;;;;;;;;19.00;62.99;101124.16;7401749;19;985;-43
2023/02/03 03:54:14;;;;;;;;;;;;;;;19.05;62.84;101140.72;7399761;19;1877;-43
2023/02/03 03:56:46;;;;;;;;;;;;;;;19.02;62.85;101123.06;7399764;19;1887;-44
2023/02/03 03:59:16;;;;;;;;;;;;;;;19.10;62.75;101133.16;7401751;19;1871;-43
2023/02/03 04:01:45;;;;;;;;;;;;;;;18.39;64.55;101138.00;7407621;19;1496;-43
2023/02/03 04:04:17;;;;;;;;;;;;;;;17.80;66.12;101139.88;7405794;19;1851;-43
2023/02/03 04:06:45;;;;;;;;;;;;;;;17.54;66.69;101147.22;7409003;19;1333;-43
2023/02/03 04:09:14;;;;;;;;;;;;;;;17.86;66.03;101131.38;7407730;19;1812;-43
2023/02/03 04:14:23;;;;;;;;;;;;;;;18.36;64.85;101132.88;7409637;19;1900;-43
2023/02/03 04:16:51;;;;;;;;;;;;;;;18.31;64.85;101143.13;7407052;19;1754;-43
2023/02/03 04:19:22;;;;;;;;;;;;;;;18.15;64.83;101130.94;7407688;19;1883;-44
2023/02/03 04:21:50;;;;;;;;;;;;;;;18.06;65.39;101137.88;7408656;19;1650;-43
2023/02/03 04:24:18;;;;;;;;;;;;;;;18.00;65.50;101151.72;7403729;19;2055;-43
2023/02/03 04:26:47;;;;;;;;;;;;;;;18.01;65.65;101148.09;7406418;19;1870;-43
2023/02/03 04:29:15;;;;;;;;;;;;;;;17.99;65.77;101144.69;7408163;19;1087;-43
2023/02/03 04:31:43;;;;;;;;;;;;;;;18.01;65.39;101165.97;7406547;19;2056;-43
2023/02/03 04:34:12;;;;;;;;;;;;;;;18.01;65.45;101172.19;7406414;19;1875;-43
2023/02/03 04:36:43;;;;;;;;;;;;;;;18.19;64.88;101153.81;7405276;19;1941;-43
2023/02/03 04:39:11;;;;;;;;;;;;;;;18.36;64.38;101170.38;7407627;19;1905;-43
2023/02/03 04:41:39;;;;;;;;;;;;;;;18.45;63.95;101165.16;7407229;19;1945;-43
2023/02/03 04:44:07;;;;;;;;;;;;;;;18.52;63.76;101167.34;7405249;19;1857;-43
2023/02/03 04:46:36;;;;;;;;;;;;;;;18.45;64.06;101159.78;7406954;19;1955;-44
2023/02/03 04:49:04;;;;;;;;;;;;;;;18.28;64.10;101171.84;7407099;19;1899;-43
2023/02/03 04:51:32;;;;;;;;;;;;;;;18.21;64.84;101170.63;7406874;19;1630;-43
2023/02/03 04:54:03;;;;;;;;;;;;;;;18.13;64.94;101175.72;7404287;19;2043;-43
2023/02/03 04:56:31;;;;;;;;;;;;;;;18.15;64.63;101173.78;7404883;19;1879;-43
2023/02/03 04:59:00;;;;;;;;;;;;;;;18.16;64.43;101175.47;7406067;19;1939;-43
2023/02/03 05:01:28;;;;;;;;;;;;;;;18.16;64.73;101185.31;7406074;19;1886;-43
2023/02/03 05:03:56;;;;;;;;;;;;;;;18.06;64.66;101182.50;7405652;19;1901;-43
2023/02/03 05:06:25;;;;;;;;;;;;;;;18.11;64.58;101177.66;7406545;19;1587;-43
2023/02/03 05:08:54;;;;;;;;;;;;;;;18.11;64.34;101188.38;7402523;19;1815;-43
2023/02/03 05:11:25;;;;;;;;;;;;;;;18.09;64.77;101207.22;7403660;19;1693;-43
2023/02/03 05:13:53;;;;;;;;;;;;;;;18.07;64.72;101203.81;7405898;19;1745;-43
2023/02/03 05:16:22;;;;;;;;;;;;;;;18.04;64.70;101208.53;7405598;19;1727;-43
2023/02/03 05:18:50;;;;;;;;;;;;;;;18.07;64.49;101202.97;7406019;19;1394;-43
2023/02/03 05:21:18;;;;;;;;;;;;;;;18.10;64.31;101192.00;7404959;19;1994;-43
2023/02/03 05:23:47;;;;;;;;;;;;;;;18.16;64.25;101202.22;7400768;19;1884;-43
2023/02/03 05:26:15;;;;;;;;;;;;;;;18.15;64.31;101208.56;7405008;19;1940;-44
2023/02/03 05:28:46;;;;;;;;;;;;;;;18.19;64.33;101215.41;7406154;19;1094;-43
2023/02/03 05:31:14;;;;;;;;;;;;;;;18.20;64.38;101209.03;7403565;19;1777;-43
2023/02/03 05:33:42;;;;;;;;;;;;;;;18.07;64.66;101205.66;7404953;19;1703;-43
2023/02/03 05:36:11;;;;;;;;;;;;;;;17.63;66.16;101231.25;7403055;19;1718;-43
2023/02/03 05:38:41;;;;;;;;;;;;;;;17.25;68.21;101235.81;7403805;19;2025;-43
2023/02/03 05:43:54;;;;;;;;;;;;;;;17.03;69.65;101223.16;7402410;19;1996;-44
2023/02/03 05:46:22;;;;;;;;;;;;;;;17.06;69.27;101235.44;7405128;19;1427;-44
2023/02/03 05:48:50;;;;;;;;;;;;;;;16.92;69.76;101241.78;7403123;19;1653;-44
2023/02/03 05:51:19;;;;;;;;;;;;;;;16.77;69.79;101250.84;7403519;19;2138;-44
2023/02/03 05:53:47;;;;;;;;;;;;;;;16.82;68.67;101256.75;7402536;19;1307;-45
2023/02/03 05:56:19;;;;;;;;;;;;;;;16.63;69.46;101251.81;7400552;19;1824;-44
2023/02/03 05:58:47;;;;;;;;;;;;;;;16.50;69.55;101246.50;7401452;19;1712;-44
2023/02/03 06:01:18;;;;;;;;;;;;;;;16.46;69.42;101240.50;7403296;19;1808;-44
2023/02/03 06:03:50;;;;;;;;;;;;;;;16.42;69.12;101300.41;6597427;19;10000688;-44
2023/02/03 06:06:19;;;;;;;;;;;;;;;16.37;68.73;101259.81;7392202;19;2124;-44
2023/02/03 06:08:47;;;;;;;;;;;;;;;16.39;68.44;101262.41;7395509;19;1703;-44
2023/02/03 06:11:16;;;;;;;;;;;;;;;16.42;68.32;101264.88;7396800;19;1667;-44
2023/02/03 06:13:44;;;;;;;;;;;;;;;16.35;68.68;101282.25;7398765;19;1705;-45
2023/02/03 06:16:12;;;;;;;;;;;;;;;16.27;68.57;101270.31;7396713;19;1518;-44
2023/02/03 06:18:43;;;;;;;;;;;;;;;16.29;68.77;101280.84;7397415;19;1659;-44
2023/02/03 06:21:11;;;;;;;;;;;;;;;16.28;68.61;101273.84;7397183;19;2139;-44
2023/02/03 06:23:40;;;;;;;;;;;;;;;16.18;69.19;101278.94;7397114;19;1863;-45
2023/02/03 06:26:08;;;;;;;;;;;;;;;16.91;66.94;101288.16;7396989;19;1793;-44
2023/02/03 06:28:37;;;;;;;;;;;;;;;17.50;64.83;101266.91;7397020;19;1756;-44
2023/02/03 06:31:05;;;;;;;;;;;;;;;17.56;64.40;101275.47;7395946;19;1759;-44
2023/02/03 06:33:33;;;;;;;;;;;;;;;17.13;66.33;101298.16;7396886;19;1956;-44
2023/02/03 06:36:04;;;;;;;;;;;;;;;16.79;66.99;101299.66;7396151;19;1715;-44
2023/02/03 06:38:33;;;;;;;;;;;;;;;16.52;68.21;101292.63;7396356;19;1972;-44
2023/02/03 06:41:01;;;;;;;;;;;;;;;16.40;68.20;101309.50;7395780;19;1780;-44
2023/02/03 06:43:29;;;;;;;;;;;;;;;16.37;68.43;101301.69;7396570;19;1912;-44
2023/02/03 06:45:57;;;;;;;;;;;;;;;16.30;68.84;101310.13;7395116;19;1966;-44
2023/02/03 06:48:26;;;;;;;;;;;;;;;16.24;68.98;101310.53;7395462;19;1988;-44
2023/02/03 06:50:54;;;;;;;;;;;;;;;16.19;68.96;101312.66;7396761;19;1763;-44
2023/02/03 06:53:25;;;;;;;;;;;;;;;16.15;69.11;101299.63;7395933;19;1866;-44
2023/02/03 06:55:53;;;;;;;;;;;;;;;16.17;68.66;101317.25;7393546;19;1309;-44
2023/02/03 06:58:22;;;;;;;;;;;;;;;16.04;69.12;101309.22;7400877;19;1410;-44
2023/02/03 07:00:50;;;;;;;;;;;;;;;16.03;69.38;101323.50;7398013;19;2003;-44
2023/02/03 07:03:18;;;;;;;;;;;;;;;16.05;69.74;101326.06;7400741;19;2026;-44
2023/02/03 07:05:47;;;;;;;;;;;;;;;16.01;69.74;101332.56;7400977;19;1948;-44
2023/02/03 07:08:15;;;;;;;;;;;;;;;15.73;69.77;101297.06;7402159;19;1760;-44
2023/02/03 07:10:46;;;;;;;;;;;;;;;15.94;69.64;101334.81;7403177;19;1040;-44
2023/02/03 07:13:14;;;;;;;;;;;;;;;15.94;69.82;101341.97;7401996;19;1907;-44
2023/02/03 07:15:42;;;;;;;;;;;;;;;15.91;70.04;101341.16;7401938;19;1719;-44
2023/02/03 07:18:11;;;;;;;;;;;;;;;15.87;69.86;101337.00;7400410;19;1936;-44
2023/02/03 07:20:39;;;;;;;;;;;;;;;15.88;69.82;101341.38;7401518;19;1971;-44
2023/02/03 07:23:07;;;;;;;;;;;;;;;15.86;70.22;101351.31;7392512;19;1600;-44
2023/02/03 07:25:35;;;;;;;;;;;;;;;15.87;70.26;101347.66;7397955;19;2068;-44
2023/02/03 07:28:07;;;;;;;;;;;;;;;15.83;70.25;101345.31;7400112;19;2297;-44
2023/02/03 07:30:35;;;;;;;;;;;;;;;15.87;70.23;101357.47;7401202;19;1772;-43
2023/02/03 07:33:03;;;;;;;;;;;;;;;15.87;69.75;101363.66;7398241;19;1832;-44
2023/02/03 07:35:32;;;;;;;;;;;;;;;15.83;70.26;101361.31;7399466;19;1593;-44
2023/02/03 07:38:00;;;;;;;;;;;;;;;15.85;69.99;101362.06;7400153;19;1566;-44
2023/02/03 07:40:28;;;;;;;;;;;;;;;15.82;70.32;101368.47;7400034;19;2341;-44
2023/02/03 07:42:58;;;;;;;;;;;;;;;15.83;70.01;101369.31;7397625;19;2111;-44
2023/02/03 07:45:29;;;;;;;;;;;;;;;15.82;70.15;101370.28;7399008;19;1879;-44
2023/02/03 07:47:57;;;;;;;;;;;;;;;15.86;69.87;101367.31;7399333;19;1932;-44
2023/02/03 07:50:26;;;;;;;;;;;;;;;15.87;69.77;101365.50;7399550;19;1932;-44
2023/02/03 07:52:54;;;;;;;;;;;;;;;15.98;69.77;101362.13;7399247;19;1900;-44
2023/02/03 07:55:22;;;;;;;;;;;;;;;16.05;68.99;101368.75;7399181;19;2035;-44
2023/02/03 07:57:50;;;;;;;;;;;;;;;16.10;69.35;101366.66;7399452;19;1977;-44
2023/02/03 08:00:19;;;;;;;;;;;;;;;16.15;69.38;101385.84;7399258;19;2607;-43
2023/02/03 08:02:50;;;;;;;;;;;;;;;16.10;69.03;101377.31;7398548;19;1914;-43
2023/02/03 08:05:19;;;;;;;;;;;;;;;16.10;68.95;101377.31;7396364;19;1858;-44
2023/02/03 08:07:48;;;;;;;;;;;;;;;16.08;69.00;101374.75;7398475;19;1770;-43
2023/02/03 08:10:17;;;;;;;;;;;;;;;16.06;69.42;101391.81;7397804;19;2101;-43
2023/02/03 08:12:46;;;;;;;;;;;;;;;16.03;69.34;101384.00;7399612;19;1739;-43
2023/02/03 08:15:16;;;;;;;;;;;;;;;16.05;69.15;101406.09;7397805;19;1629;-43
2023/02/03 08:17:45;;;;;;;;;;;;;;;16.00;69.49;101397.56;7397865;19;2152;-43
2023/02/03 08:20:16;;;;;;;;;;;;;;;15.94;69.38;101408.63;7397015;19;1911;-43
2023/02/03 08:22:44;;;;;;;;;;;;;;;15.91;69.76;101409.66;7396848;19;2198;-43
2023/02/03 08:25:13;;;;;;;;;;;;;;;15.89;69.84;101408.91;7397084;19;2026;-43
2023/02/03 08:27:42;;;;;;;;;;;;;;;15.89;69.91;101400.91;7399163;19;1819;-43
2023/02/03 08:30:13;;;;;;;;;;;;;;;15.85;70.00;101410.91;7398553;19;1667;-43
2023/02/03 08:32:41;;;;;;;;;;;;;;;15.81;70.12;101419.22;7396938;19;1648;-43
2023/02/03 08:35:09;;;;;;;;;;;;;;;15.82;69.65;101405.81;7397501;19;1747;-43
2023/02/03 08:37:41;;;;;;;;;;;;;;;15.74;70.29;101402.78;7398861;19;1307;-43
2023/02/03 08:40:09;;;;;;;;;;;;;;;15.74;69.96;101400.09;7397487;19;1750;-43
2023/02/03 08:42:38;;;;;;;;;;;;;;;15.74;69.86;101409.91;7397293;19;1896;-43
2023/02/03 08:45:07;;;;;;;;;;;;;;;15.75;70.14;101391.13;7394853;19;1864;-43
2023/02/03 08:47:35;;;;;;;;;;;;;;;15.77;69.86;101383.91;6883101;19;9999687;-44
2023/02/03 08:50:04;;;;;;;;;;;;;;;15.79;69.99;101403.31;7400230;19;2053;-44
2023/02/03 08:52:32;;;;;;;;;;;;;;;15.76;70.14;101400.00;7400544;19;1931;-43
2023/02/03 08:55:03;;;;;;;;;;;;;;;15.74;69.73;101402.78;7399120;19;2053;-43
2023/02/03 08:57:33;;;;;;;;;;;;;;;15.83;69.62;101431.50;7395459;19;2075;-43
2023/02/03 09:00:02;;;;;;;;;;;;;;;16.05;69.59;101432.78;7400375;19;1740;-43
2023/02/03 09:02:30;;;;;;;;;;;;;;;16.11;68.96;101445.72;7399214;19;2024;-43
2023/02/03 09:04:58;;;;;;;;;;;;;;;16.05;69.26;101427.44;7399195;19;1873;-43
2023/02/03 09:07:27;;;;;;;;;;;;;;;16.01;69.27;101444.59;7400471;19;1953;-43
2023/02/03 09:09:55;;;;;;;;;;;;;;;16.10;69.28;101436.03;7397557;19;1814;-43
2023/02/03 09:12:26;;;;;;;;;;;;;;;16.11;69.02;101432.38;7399749;19;1746;-43
2023/02/03 09:14:54;;;;;;;;;;;;;;;16.09;69.03;101437.84;7401990;19;1988;-43
2023/02/03 09:17:22;;;;;;;;;;;;;;;16.04;69.19;101439.09;7400984;19;1570;-44
2023/02/03 09:19:51;;;;;;;;;;;;;;;16.07;69.32;101433.53;7404058;19;1936;-43
2023/02/03 09:22:19;;;;;;;;;;;;;;;16.06;69.21;101421.16;7405856;19;1619;-43
2023/02/03 09:24:49;;;;;;;;;;;;;;;16.05;68.88;101438.97;7402131;19;1991;-44
2023/02/03 09:27:17;;;;;;;;;;;;;;;15.96;68.99;101431.59;7404491;19;1569;-43
2023/02/03 09:29:48;;;;;;;;;;;;;;;15.81;69.38;101445.91;7402130;19;2015;-43
2023/02/03 09:32:17;;;;;;;;;;;;;;;15.70;69.35;101443.88;7401332;19;1950;-43
2023/02/03 09:34:45;;;;;;;;;;;;;;;16.20;67.85;101447.78;7405218;19;1074;-43
2023/02/03 09:37:13;;;;;;;;;;;;;;;17.06;65.33;101435.84;7401792;19;1871;-43
2023/02/03 09:39:42;;;;;;;;;;;;;;;17.64;63.33;101423.69;7400927;19;2023;-44
2023/02/03 09:42:24;;;;;;;;;;;;;;;17.83;63.03;101409.88;7403674;19;1858;-43
2023/02/03 09:44:59;;;;;;;;;;;;;;;18.03;62.07;101415.59;7402902;19;1851;-43
2023/02/03 09:47:30;;;;;;;;;;;;;;;18.17;62.29;101402.03;7402986;19;2004;-43
2023/02/03 09:50:00;;;;;;;;;;;;;;;18.17;61.80;101415.41;7403379;19;1494;-43
2023/02/03 09:52:30;;;;;;;;;;;;;;;18.24;62.17;101416.69;7405603;19;1122;-43
2023/02/03 09:55:01;;;;;;;;;;;;;;;18.15;62.40;101409.31;7403861;19;1925;-44
2023/02/03 09:57:30;;;;;;;;;;;;;;;18.01;62.71;101412.19;7400918;19;1775;-44
2023/02/03 10:00:03;;;;;;;;;;;;;;;17.94;62.67;101408.22;7404269;19;2015;-44
2023/02/03 10:02:39;;;;;;;;;;;;;;;17.93;62.75;101415.41;7402820;19;1659;-43
2023/02/03 10:05:12;;;;;;;;;;;;;;;17.95;62.72;101417.97;7402586;19;1902;-43
2023/02/03 10:07:46;;;;;;;;;;;;;;;17.90;63.10;101420.97;7404213;19;1043;-44
2023/02/03 10:10:20;;;;;;;;;;;;;;;17.96;62.94;101415.16;7403905;19;2083;-43
2023/02/03 10:12:55;;;;;;;;;;;;;;;18.06;62.54;101426.94;7404083;19;1816;-44
2023/02/03 10:15:38;;;;;;;;;;;;;;;18.04;62.66;101417.28;7403481;19;2085;-43
2023/02/03 10:18:12;;;;;;;;;;;;;;;18.01;63.18;101404.16;7401870;19;2485;-43
2023/02/03 10:20:42;;;;;;;;;;;;;;;18.03;62.66;101420.94;7403546;19;1972;-43
2023/02/03 10:23:14;;;;;;;;;;;;;;;18.01;62.66;101405.00;7404592;19;960;-44
2023/02/03 10:25:44;;;;;;;;;;;;;;;18.08;62.79;101392.88;7403291;19;2541;-44
2023/02/03 10:28:16;;;;;;;;;;;;;;;18.12;62.32;101398.00;7403342;19;2067;-43
2023/02/03 10:30:48;;;;;;;;;;;;;;;18.09;62.34;101389.22;7401872;19;2076;-43
2023/02/03 10:33:20;;;;;;;;;;;;;;;18.12;63.01;101409.53;7401425;19;1757;-43
2023/02/03 10:35:51;;;;;;;;;;;;;;;18.12;62.58;101392.63;7402106;19;1869;-44
2023/02/03 10:38:28;;;;;;;;;;;;;;;18.17;62.50;101395.84;7403584;19;1995;-43
2023/02/03 10:40:57;;;;;;;;;;;;;;;18.22;62.00;101394.53;7404563;19;1023;-44
2023/02/03 10:46:06;;;;;;;;;;;;;;;18.41;61.67;101396.66;7401656;19;1854;-44
2023/02/03 10:48:37;;;;;;;;;;;;;;;18.20;62.07;101356.28;7401941;19;1905;-44
2023/02/03 10:51:05;;;;;;;;;;;;;;;18.58;61.58;101390.03;7402428;19;1782;-43
2023/02/03 10:53:35;;;;;;;;;;;;;;;18.68;61.47;101391.03;7403255;19;1885;-44
2023/02/03 10:56:05;;;;;;;;;;;;;;;18.64;61.51;101381.50;7401712;19;1849;-44
2023/02/03 10:58:34;;;;;;;;;;;;;;;18.76;61.42;101384.19;7402975;19;1053;-44
2023/02/03 11:01:07;;;;;;;;;;;;;;;18.57;61.83;101374.91;7403166;19;1109;-43
2023/02/03 11:03:39;;;;;;;;;;;;;;;18.00;63.44;101373.84;7402643;19;2051;-43
2023/02/03 11:06:09;;;;;;;;;;;;;;;17.42;65.32;101368.22;7401626;19;2048;-43
2023/02/03 11:08:39;;;;;;;;;;;;;;;17.12;65.84;101381.13;7397739;19;2084;-44
2023/02/03 11:11:08;;;;;;;;;;;;;;;17.00;66.27;101367.66;7401253;19;1942;-44
2023/02/03 11:13:37;;;;;;;;;;;;;;;16.94;66.54;101373.44;7402866;19;986;-43
2023/02/03 11:16:07;;;;;;;;;;;;;;;16.93;66.42;101381.53;7403397;19;1108;-43
2023/02/03 11:18:41;;;;;;;;;;;;;;;16.89;66.81;101365.75;7401292;19;1983;-43
2023/02/03 11:21:12;;;;;;;;;;;;;;;16.85;66.77;101363.38;7402052;19;2071;-43
2023/02/03 11:23:46;;;;;;;;;;;;;;;16.83;66.66;101375.97;7398753;19;2029;-43
2023/02/03 11:26:16;;;;;;;;;;;;;;;16.75;66.91;101357.81;7400568;19;1852;-43
2023/02/03 11:28:46;;;;;;;;;;;;;;;16.63;67.23;101355.97;7402323;19;1093;-43
2023/02/03 11:31:19;;;;;;;;;;;;;;;16.52;67.54;101348.69;7401044;19;2028;-43
2023/02/03 11:33:55;;;;;;;;;;;;;;;16.51;67.92;101373.66;7401371;19;1940;-43
2023/02/03 11:36:25;;;;;;;;;;;;;;;16.48;67.65;101360.53;7401502;19;1931;-43
2023/02/03 11:38:53;;;;;;;;;;;;;;;16.47;67.89;101337.47;7400970;19;1943;-43
2023/02/03 11:41:22;;;;;;;;;;;;;;;16.35;67.32;101343.66;7399271;19;1583;-43
2023/02/03 11:43:50;;;;;;;;;;;;;;;16.41;67.05;101330.75;7392633;19;1885;-43
2023/02/03 11:46:19;;;;;;;;;;;;;;;16.59;67.34;101315.28;6874090;19;10000333;-43
2023/02/03 11:48:58;;;;;;;;;;;;;;;16.61;67.17;101329.38;7388257;19;1698;-43
2023/02/03 11:51:31;;;;;;;;;;;;;;;16.59;67.19;101307.28;7393718;19;1966;-43
2023/02/03 11:54:08;;;;;;;;;;;;;;;16.54;67.38;101328.09;7392414;19;1559;-43
2023/02/03 11:56:45;;;;;;;;;;;;;;;16.42;67.72;101321.78;7391940;19;1875;-43
2023/02/03 11:59:21;;;;;;;;;;;;;;;16.41;67.87;101317.41;7392186;19;1749;-43
2023/02/03 12:02:03;;;;;;;;;;;;;;;16.48;67.92;101328.50;7393953;19;1731;-43
2023/02/03 12:04:50;;;;;;;;;;;;;;;16.44;67.72;101327.00;7393407;19;1636;-43
2023/02/03 12:07:33;;;;;;;;;;;;;;;16.46;67.50;101311.75;7390185;19;2262;-44
2023/02/03 12:10:04;;;;;;;;;;;;;;;16.56;67.49;101328.84;7391699;19;1798;-44
2023/02/03 12:12:40;;;;;;;;;;;;;;;16.59;67.83;101319.75;7391992;19;1721;-44
2023/02/03 12:15:19;;;;;;;;;;;;;;;16.59;67.42;101311.75;7391192;19;1804;-43
2023/02/03 12:17:55;;;;;;;;;;;;;;;16.58;67.25;101286.88;7389920;19;2007;-43
2023/02/03 12:20:28;;;;;;;;;;;;;;;16.54;67.13;101322.75;7393992;19;2303;-43
2023/02/03 12:23:04;;;;;;;;;;;;;;;16.50;67.26;101318.59;7400066;19;1909;-43
2023/02/03 12:25:38;;;;;;;;;;;;;;;16.46;67.43;101304.59;7399605;19;1929;-44
2023/02/03 12:28:11;;;;;;;;;;;;;;;16.44;67.39;101311.84;7400570;19;1911;-43
2023/02/03 12:30:42;;;;;;;;;;;;;;;16.42;67.63;101295.09;7400014;19;1572;-43
2023/02/03 12:33:16;;;;;;;;;;;;;;;16.34;67.49;101299.25;7400115;19;1515;-43
2023/02/03 12:35:48;;;;;;;;;;;;;;;16.25;68.26;101295.38;7396710;19;1774;-44
2023/02/03 12:38:20;;;;;;;;;;;;;;;16.15;68.53;101321.81;7399119;19;2019;-43
2023/02/03 12:40:52;;;;;;;;;;;;;;;16.09;69.04;101307.09;7404009;19;2246;-44
2023/02/03 12:43:25;;;;;;;;;;;;;;;16.01;69.31;101290.72;7402212;19;1787;-43
2023/02/03 12:45:55;;;;;;;;;;;;;;;16.18;69.19;101300.28;7405149;19;2091;-43
2023/02/03 12:48:26;;;;;;;;;;;;;;;16.21;69.05;101300.06;7403032;19;2235;-44
2023/02/03 12:50:58;;;;;;;;;;;;;;;16.08;69.40;101294.72;7402921;19;1532;-44
2023/02/03 12:53:30;;;;;;;;;;;;;;;16.85;66.55;101281.44;7402758;19;1856;-44
2023/02/03 12:56:01;;;;;;;;;;;;;;;17.55;64.35;101289.78;7404505;19;1961;-44
2023/02/03 12:58:31;;;;;;;;;;;;;;;17.90;63.27;101289.88;7406642;19;1086;-43
2023/02/03 13:01:02;;;;;;;;;;;;;;;18.14;63.26;101283.63;7405969;19;2082;-44
2023/02/03 13:03:35;;;;;;;;;;;;;;;18.28;62.54;101281.63;7403180;19;2123;-44
2023/02/03 13:06:08;;;;;;;;;;;;;;;18.55;62.01;101267.03;7403832;19;1861;-44
2023/02/03 13:08:41;;;;;;;;;;;;;;;18.57;61.66;101267.78;7403161;19;1758;-44